createdAt,value
2018-07-20T00:03:48.576Z,88.00
2018-07-20T00:07:51.833Z,87.80
2018-07-20T00:11:55.122Z,88.00
2018-07-20T00:15:58.950Z,87.90
2018-07-20T00:20:02.212Z,88.40
2018-07-20T00:24:05.489Z,88.70
2018-07-20T00:28:08.748Z,89.40
2018-07-20T00:32:12.050Z,89.70
2018-07-20T00:36:15.383Z,90.70
2018-07-20T00:40:18.636Z,91.50
2018-07-20T00:44:22.268Z,91.70
2018-07-20T00:48:25.533Z,91.70
2018-07-20T00:52:28.800Z,91.80
2018-07-20T00:56:32.141Z,91.60
2018-07-20T01:00:35.417Z,91.90
2018-07-20T01:04:38.705Z,92.10
2018-07-20T01:08:41.966Z,92.30
2018-07-20T01:12:45.331Z,92.30
2018-07-20T01:16:48.612Z,92.40
2018-07-20T01:20:51.904Z,92.70
2018-07-20T01:24:55.190Z,92.50
2018-07-20T01:28:58.461Z,92.40
2018-07-20T01:33:01.893Z,92.20
2018-07-20T01:37:05.369Z,92.20
2018-07-20T01:41:09.031Z,92.10
2018-07-20T01:45:12.310Z,92.10
2018-07-20T01:49:15.585Z,92.10
2018-07-20T01:53:18.883Z,92.10
2018-07-20T01:57:22.141Z,92.30
2018-07-20T02:01:25.569Z,92.50
2018-07-20T02:05:28.856Z,93.50
2018-07-20T02:09:32.337Z,94.70
2018-07-20T02:13:35.602Z,95.10
2018-07-20T02:17:38.864Z,95.50
2018-07-20T02:21:45.093Z,94.90
2018-07-20T02:25:48.385Z,94.70
2018-07-20T02:29:51.719Z,94.00
2018-07-20T02:33:54.974Z,94.30
2018-07-20T02:37:58.325Z,93.90
2018-07-20T02:42:01.583Z,93.90
2018-07-20T02:46:04.944Z,93.40
2018-07-20T02:50:08.266Z,92.90
2018-07-20T02:54:11.721Z,92.50
2018-07-20T02:58:15.006Z,92.30
2018-07-20T03:02:18.284Z,92.30
2018-07-20T03:06:21.594Z,92.10
2018-07-20T03:10:24.851Z,91.90
2018-07-20T03:14:28.150Z,91.90
2018-07-20T03:18:31.701Z,91.90
2018-07-20T03:22:34.965Z,92.20
2018-07-20T03:26:38.250Z,92.40
2018-07-20T03:30:45.080Z,92.40
2018-07-20T03:34:48.485Z,92.50
2018-07-20T03:38:55.609Z,92.30
2018-07-20T03:42:58.973Z,92.50
2018-07-20T03:47:02.293Z,92.70
2018-07-20T03:51:05.579Z,92.70
2018-07-20T03:55:08.911Z,92.70
2018-07-20T03:59:12.232Z,93.10
2018-07-20T04:07:18.653Z,92.70
2018-07-20T04:11:21.912Z,92.00
2018-07-20T04:15:25.256Z,91.70
2018-07-20T04:19:28.606Z,91.30
2018-07-20T04:23:31.877Z,90.90
2018-07-20T04:27:35.402Z,90.90
2018-07-20T04:31:38.697Z,90.80
2018-07-20T04:35:42.013Z,90.50
2018-07-20T04:39:45.496Z,90.10
2018-07-20T04:43:48.799Z,90.30
2018-07-20T04:47:52.693Z,90.40
2018-07-20T04:51:55.950Z,90.10
2018-07-20T04:55:59.251Z,90.10
2018-07-20T05:00:02.583Z,90.00
2018-07-20T05:04:06.058Z,90.00
2018-07-20T05:08:09.348Z,89.90
2018-07-20T05:12:12.618Z,89.80
2018-07-20T05:16:15.986Z,89.40
2018-07-20T05:20:19.301Z,90.10
2018-07-20T05:24:22.615Z,90.00
2018-07-20T05:28:25.856Z,90.70
2018-07-20T05:32:29.166Z,91.60
2018-07-20T05:36:32.402Z,92.10
2018-07-20T05:40:35.784Z,91.90
2018-07-20T05:44:39.044Z,91.40
2018-07-20T05:48:42.322Z,90.80
2018-07-20T05:56:49.209Z,90.60
2018-07-20T06:00:52.488Z,89.90
2018-07-20T06:04:55.778Z,89.80
2018-07-20T06:08:59.037Z,89.70
2018-07-20T06:13:02.540Z,90.10
2018-07-20T06:17:06.073Z,90.00
2018-07-20T06:21:09.364Z,89.00
2018-07-20T06:25:12.721Z,88.80
2018-07-20T06:29:16.005Z,87.50
2018-07-20T06:33:19.281Z,87.10
2018-07-20T06:37:22.538Z,86.20
2018-07-20T06:41:26.128Z,86.10
2018-07-20T06:45:29.409Z,85.20
2018-07-20T06:49:32.685Z,84.80
2018-07-20T06:53:36.031Z,84.60
2018-07-20T06:57:39.384Z,82.90
2018-07-20T07:01:42.664Z,82.80
2018-07-20T07:05:45.954Z,81.90
2018-07-20T07:09:49.257Z,80.50
2018-07-20T07:13:52.536Z,81.30
2018-07-20T07:17:55.788Z,79.00
2018-07-20T07:21:59.073Z,77.30
2018-07-20T07:26:02.363Z,77.70
2018-07-20T07:30:05.657Z,77.90
2018-07-20T07:34:09.044Z,75.50
2018-07-20T07:38:12.325Z,75.50
2018-07-20T07:42:15.702Z,74.40
2018-07-20T07:46:19.344Z,74.70
2018-07-20T07:50:22.615Z,74.00
2018-07-20T07:54:25.888Z,73.70
2018-07-20T07:58:29.269Z,73.10
2018-07-20T08:02:32.560Z,71.20
2018-07-20T08:06:35.886Z,72.50
2018-07-20T08:10:39.161Z,71.40
2018-07-20T08:14:42.465Z,69.30
2018-07-20T08:18:45.718Z,67.40
2018-07-20T08:22:49.090Z,67.00
2018-07-20T08:26:52.359Z,65.80
2018-07-20T08:30:55.622Z,66.80
2018-07-20T08:34:58.916Z,64.90
2018-07-20T08:39:02.216Z,64.20
2018-07-20T08:43:05.698Z,65.40
2018-07-20T08:47:08.970Z,63.20
2018-07-20T08:51:12.272Z,63.90
2018-07-20T08:55:15.614Z,62.90
2018-07-20T08:59:19.045Z,63.80
2018-07-20T09:03:22.381Z,64.20
2018-07-20T09:07:25.684Z,63.20
2018-07-20T09:11:28.952Z,61.80
2018-07-20T09:15:32.271Z,62.30
2018-07-20T09:19:36.431Z,59.90
2018-07-20T09:23:39.728Z,59.70
2018-07-20T09:27:43.000Z,58.90
2018-07-20T09:31:46.272Z,57.50
2018-07-20T09:35:49.626Z,57.80
2018-07-20T09:39:52.884Z,56.70
2018-07-20T09:43:56.158Z,54.10
2018-07-20T09:47:59.437Z,53.00
2018-07-20T09:52:02.783Z,49.90
2018-07-20T09:56:06.091Z,47.30
2018-07-20T10:00:09.397Z,44.70
2018-07-20T10:04:12.653Z,43.70
2018-07-20T10:08:16.390Z,43.00
2018-07-20T10:12:19.689Z,42.90
2018-07-20T10:16:23.014Z,40.90
2018-07-20T10:20:26.295Z,41.10
2018-07-20T10:24:29.608Z,41.10
2018-07-20T10:28:32.885Z,42.20
2018-07-20T10:32:36.182Z,43.50
2018-07-20T10:36:39.694Z,43.10
2018-07-20T10:40:42.981Z,42.60
2018-07-20T10:44:46.273Z,43.60
2018-07-20T10:48:49.540Z,45.00
2018-07-20T10:52:52.885Z,41.70
2018-07-20T10:56:56.203Z,40.60
2018-07-20T11:00:59.474Z,37.30
2018-07-20T11:05:02.797Z,37.00
2018-07-20T11:09:07.373Z,33.00
2018-07-20T11:13:10.657Z,31.80
2018-07-20T11:17:14.016Z,31.20
2018-07-20T11:21:17.957Z,31.90
2018-07-20T11:25:21.266Z,31.20
2018-07-20T11:29:24.681Z,30.00
2018-07-20T11:33:28.003Z,30.40
2018-07-20T11:37:31.327Z,28.60
2018-07-20T11:41:34.649Z,28.50
2018-07-20T11:45:37.928Z,29.10
2018-07-20T11:49:41.360Z,29.00
2018-07-20T11:53:44.681Z,29.10
2018-07-20T11:57:48.046Z,29.80
2018-07-20T12:01:51.342Z,29.30
2018-07-20T12:05:54.629Z,29.40
2018-07-20T12:09:57.939Z,30.00
2018-07-20T12:14:01.237Z,29.80
2018-07-20T12:18:04.524Z,31.20
2018-07-20T12:22:07.871Z,33.60
2018-07-20T12:26:11.160Z,33.30
2018-07-20T12:30:14.484Z,34.30
2018-07-20T12:34:17.776Z,33.80
2018-07-20T12:38:21.080Z,34.10
2018-07-20T12:42:24.352Z,32.60
2018-07-20T12:46:27.619Z,31.60
2018-07-20T12:50:30.959Z,32.00
2018-07-20T12:54:34.191Z,34.30
2018-07-20T12:58:37.552Z,34.00
2018-07-20T13:02:40.805Z,33.10
2018-07-20T13:06:44.085Z,33.00
2018-07-20T13:10:47.506Z,33.00
2018-07-20T13:14:50.813Z,35.40
2018-07-20T13:18:54.102Z,30.60
2018-07-20T13:22:57.390Z,29.70
2018-07-20T13:27:00.912Z,29.70
2018-07-20T13:31:04.234Z,28.50
2018-07-20T13:35:08.112Z,28.90
2018-07-20T13:43:14.858Z,30.10
2018-07-20T13:47:18.151Z,29.70
2018-07-20T13:51:21.437Z,30.30
2018-07-20T13:55:24.709Z,31.10
2018-07-20T13:59:28.173Z,30.80
2018-07-20T14:03:31.540Z,30.10
2018-07-20T14:07:34.809Z,29.50
2018-07-20T14:11:38.384Z,29.70
2018-07-20T14:15:42.537Z,29.50
2018-07-20T14:19:45.806Z,29.20
2018-07-20T14:23:49.191Z,29.00
2018-07-20T14:27:52.459Z,29.40
2018-07-20T14:31:55.833Z,29.80
2018-07-20T14:35:59.305Z,32.30
2018-07-20T14:40:02.687Z,31.20
2018-07-20T14:44:06.093Z,30.40
2018-07-20T14:48:09.455Z,30.50
2018-07-20T14:52:12.887Z,30.00
2018-07-20T14:56:16.121Z,30.90
2018-07-20T15:00:19.402Z,30.10
2018-07-20T15:04:22.708Z,31.80
2018-07-20T15:08:26.022Z,31.10
2018-07-20T15:12:29.312Z,31.20
2018-07-20T15:16:32.604Z,31.30
2018-07-20T15:20:35.901Z,32.20
2018-07-20T15:24:39.263Z,31.50
2018-07-20T15:28:42.554Z,31.70
2018-07-20T15:32:45.817Z,31.40
2018-07-20T15:36:49.144Z,32.50
2018-07-20T15:40:52.408Z,33.00
2018-07-20T15:44:55.795Z,33.40
2018-07-20T15:48:59.090Z,34.20
2018-07-20T15:57:05.772Z,32.80
2018-07-20T16:01:09.044Z,34.20
2018-07-20T16:05:12.381Z,35.20
2018-07-20T16:09:15.681Z,35.80
2018-07-20T16:13:18.975Z,35.90
2018-07-20T16:17:22.249Z,36.60
2018-07-20T16:21:25.528Z,37.00
2018-07-20T16:25:28.869Z,37.10
2018-07-20T16:29:32.153Z,36.80
2018-07-20T16:33:35.477Z,37.00
2018-07-20T16:37:38.777Z,36.40
2018-07-20T16:41:42.071Z,35.80
2018-07-20T16:45:45.320Z,36.10
2018-07-20T16:49:48.625Z,36.10
2018-07-20T16:53:51.915Z,36.10
2018-07-20T16:57:55.200Z,35.10
2018-07-20T17:01:58.461Z,34.80
2018-07-20T17:06:02.034Z,35.90
2018-07-20T17:10:05.718Z,36.70
2018-07-20T17:14:08.998Z,36.80
2018-07-20T17:18:12.329Z,37.00
2018-07-20T17:22:15.605Z,37.30
2018-07-20T17:26:18.947Z,37.70
2018-07-20T17:30:22.244Z,37.80
2018-07-20T17:34:25.537Z,37.90
2018-07-20T17:38:28.910Z,37.80
2018-07-20T17:42:32.174Z,37.70
2018-07-20T17:46:35.485Z,37.80
2018-07-20T17:50:38.786Z,37.10
2018-07-20T17:54:42.103Z,36.60
2018-07-20T17:58:45.461Z,36.60
2018-07-20T18:02:48.716Z,36.40
2018-07-20T18:06:52.298Z,36.60
2018-07-20T18:10:55.633Z,37.00
2018-07-20T18:14:58.924Z,36.40
2018-07-20T18:19:02.237Z,36.60
2018-07-20T18:23:05.859Z,37.40
2018-07-20T18:27:09.213Z,37.90
2018-07-20T18:31:13.986Z,38.00
2018-07-20T18:35:17.282Z,39.80
2018-07-20T18:39:20.610Z,41.10
2018-07-20T18:43:23.893Z,43.50
2018-07-20T18:47:27.179Z,48.60
2018-07-20T18:51:30.442Z,62.10
2018-07-20T18:55:33.725Z,64.50
2018-07-20T18:59:37.012Z,81.30
2018-07-20T19:03:40.772Z,83.60
2018-07-20T19:07:44.076Z,85.00
2018-07-20T19:11:47.338Z,74.90
2018-07-20T19:15:50.634Z,76.70
2018-07-20T19:19:53.927Z,83.30
2018-07-20T19:23:57.287Z,82.10
2018-07-20T19:28:00.461Z,80.00
2018-07-20T19:32:03.796Z,78.90
2018-07-20T19:36:07.139Z,80.60
2018-07-20T19:40:10.457Z,81.10
2018-07-20T19:44:13.756Z,82.50
2018-07-20T19:48:17.471Z,83.60
2018-07-20T19:52:20.763Z,85.70
2018-07-20T19:56:24.005Z,86.00
2018-07-20T20:00:27.389Z,87.50
2018-07-20T20:04:30.660Z,88.00
2018-07-20T20:08:33.897Z,88.70
2018-07-20T20:12:37.184Z,85.60
2018-07-20T20:16:40.460Z,86.10
2018-07-20T20:20:43.788Z,85.00
2018-07-20T20:24:47.046Z,84.50
2018-07-20T20:28:50.385Z,81.10
2018-07-20T20:32:53.697Z,81.40
2018-07-20T20:36:56.975Z,77.40
2018-07-20T20:41:00.349Z,78.30
2018-07-20T20:45:03.690Z,79.10
2018-07-20T20:49:07.015Z,77.40
2018-07-20T20:53:10.286Z,79.70
2018-07-20T20:57:13.569Z,78.90
2018-07-20T21:01:16.877Z,79.00
2018-07-20T21:05:20.215Z,78.00
2018-07-20T21:09:23.666Z,78.50
2018-07-20T21:13:26.936Z,78.20
2018-07-20T21:17:30.226Z,77.90
2018-07-20T21:21:33.535Z,78.00
2018-07-20T21:25:36.820Z,78.90
2018-07-20T21:29:40.061Z,79.40
2018-07-20T21:33:43.298Z,79.70
2018-07-20T21:37:46.568Z,78.90
2018-07-20T21:41:49.855Z,79.00
2018-07-20T21:45:53.089Z,80.30
2018-07-20T21:49:56.367Z,80.60
2018-07-20T21:53:59.610Z,80.30
2018-07-20T21:58:02.886Z,77.90
2018-07-20T22:02:06.168Z,77.20
2018-07-20T22:06:09.417Z,78.40
2018-07-20T22:10:12.722Z,77.90
2018-07-20T22:14:16.031Z,77.50
2018-07-20T22:18:19.295Z,76.80
2018-07-20T22:22:22.613Z,77.60
2018-07-20T22:26:25.886Z,77.40
2018-07-20T22:30:29.470Z,76.70
2018-07-20T22:34:32.839Z,76.20
2018-07-20T22:38:36.113Z,75.80
2018-07-20T22:42:39.370Z,75.90
2018-07-20T22:46:42.674Z,75.30
2018-07-20T22:50:45.945Z,75.00
2018-07-20T22:54:49.225Z,76.60
2018-07-20T22:58:52.504Z,76.50
2018-07-20T23:02:55.840Z,77.10
2018-07-20T23:06:59.129Z,76.60
2018-07-20T23:11:02.492Z,77.90
2018-07-20T23:15:05.785Z,77.00
2018-07-20T23:19:09.441Z,77.00
2018-07-20T23:23:12.726Z,76.40
2018-07-20T23:27:16.205Z,75.50
2018-07-20T23:31:19.487Z,75.80
2018-07-20T23:35:22.776Z,77.00
2018-07-20T23:39:26.017Z,76.80
2018-07-20T23:43:29.284Z,77.20
2018-07-20T23:47:32.950Z,76.80
2018-07-20T23:51:36.236Z,75.80
2018-07-20T23:55:39.481Z,76.20
2018-07-20T23:59:42.809Z,77.10
